sensor_id;sensor_type;location;lat;lon;timestamp;P1;durP1;ratioP1;P2;durP2;ratioP2
6840;SDS011;3458;53.678;14.080;2023-07-22T00:02:17;4.10;;;2.83;;
6840;SDS011;3458;53.678;14.080;2023-07-22T00:04:42;6.00;;;2.47;;
6840;SDS011;3458;53.678;14.080;2023-07-22T00:07:08;3.70;;;2.97;;
6840;SDS011;3458;53.678;14.080;2023-07-22T00:09:33;3.63;;;3.00;;
6840;SDS011;3458;53.678;14.080;2023-07-22T00:11:59;4.70;;;2.50;;
6840;SDS011;3458;53.678;14.080;2023-07-22T00:14:25;4.00;;;2.17;;
6840;SDS011;3458;53.678;14.080;2023-07-22T00:16:50;3.10;;;2.67;;
6840;SDS011;3458;53.678;14.080;2023-07-22T00:19:15;2.67;;;2.40;;
6840;SDS011;3458;53.678;14.080;2023-07-22T00:21:41;2.73;;;2.53;;
6840;SDS011;3458;53.678;14.080;2023-07-22T00:24:07;6.00;;;2.60;;
6840;SDS011;3458;53.678;14.080;2023-07-22T00:26:33;3.90;;;2.67;;
6840;SDS011;3458;53.678;14.080;2023-07-22T00:28:58;2.90;;;2.60;;
6840;SDS011;3458;53.678;14.080;2023-07-22T00:31:24;5.37;;;2.73;;
6840;SDS011;3458;53.678;14.080;2023-07-22T00:33:49;2.50;;;2.30;;
6840;SDS011;3458;53.678;14.080;2023-07-22T00:36:15;4.70;;;2.87;;
6840;SDS011;3458;53.678;14.080;2023-07-22T00:38:40;3.80;;;2.63;;
6840;SDS011;3458;53.678;14.080;2023-07-22T00:41:06;2.87;;;2.60;;
6840;SDS011;3458;53.678;14.080;2023-07-22T00:43:32;2.57;;;2.37;;
6840;SDS011;3458;53.678;14.080;2023-07-22T00:45:57;4.70;;;2.43;;
6840;SDS011;3458;53.678;14.080;2023-07-22T00:48:23;3.50;;;2.83;;
6840;SDS011;3458;53.678;14.080;2023-07-22T00:50:49;2.97;;;2.67;;
6840;SDS011;3458;53.678;14.080;2023-07-22T00:53:15;2.67;;;2.40;;
6840;SDS011;3458;53.678;14.080;2023-07-22T00:55:41;3.03;;;2.57;;
6840;SDS011;3458;53.678;14.080;2023-07-22T00:58:07;2.90;;;2.63;;
6840;SDS011;3458;53.678;14.080;2023-07-22T01:00:32;5.83;;;3.20;;
6840;SDS011;3458;53.678;14.080;2023-07-22T01:02:58;5.33;;;2.87;;
6840;SDS011;3458;53.678;14.080;2023-07-22T01:05:25;5.23;;;3.63;;
6840;SDS011;3458;53.678;14.080;2023-07-22T01:07:52;4.63;;;3.03;;
6840;SDS011;3458;53.678;14.080;2023-07-22T01:10:18;3.80;;;2.90;;
6840;SDS011;3458;53.678;14.080;2023-07-22T01:12:45;3.17;;;2.87;;
6840;SDS011;3458;53.678;14.080;2023-07-22T01:15:10;5.37;;;3.13;;
6840;SDS011;3458;53.678;14.080;2023-07-22T01:17:36;4.50;;;2.53;;
6840;SDS011;3458;53.678;14.080;2023-07-22T01:20:03;11.90;;;3.27;;
6840;SDS011;3458;53.678;14.080;2023-07-22T01:22:29;2.93;;;2.67;;
6840;SDS011;3458;53.678;14.080;2023-07-22T01:24:56;4.23;;;2.53;;
6840;SDS011;3458;53.678;14.080;2023-07-22T01:27:21;3.10;;;2.90;;
6840;SDS011;3458;53.678;14.080;2023-07-22T01:29:49;4.77;;;2.73;;
6840;SDS011;3458;53.678;14.080;2023-07-22T01:32:15;3.60;;;3.00;;
6840;SDS011;3458;53.678;14.080;2023-07-22T01:34:42;4.13;;;2.77;;
6840;SDS011;3458;53.678;14.080;2023-07-22T01:37:07;5.57;;;2.90;;
6840;SDS011;3458;53.678;14.080;2023-07-22T01:39:34;3.67;;;2.93;;
6840;SDS011;3458;53.678;14.080;2023-07-22T01:42:00;3.23;;;2.90;;
6840;SDS011;3458;53.678;14.080;2023-07-22T01:44:25;3.70;;;2.80;;
6840;SDS011;3458;53.678;14.080;2023-07-22T01:46:51;3.90;;;2.57;;
6840;SDS011;3458;53.678;14.080;2023-07-22T01:49:16;4.47;;;3.20;;
6840;SDS011;3458;53.678;14.080;2023-07-22T01:51:42;4.87;;;2.90;;
6840;SDS011;3458;53.678;14.080;2023-07-22T01:54:07;4.03;;;3.37;;
6840;SDS011;3458;53.678;14.080;2023-07-22T01:56:34;12.30;;;3.20;;
6840;SDS011;3458;53.678;14.080;2023-07-22T01:59:00;3.67;;;3.30;;
6840;SDS011;3458;53.678;14.080;2023-07-22T02:01:26;5.63;;;2.97;;
6840;SDS011;3458;53.678;14.080;2023-07-22T02:03:53;5.30;;;3.50;;
6840;SDS011;3458;53.678;14.080;2023-07-22T02:06:19;3.37;;;3.07;;
6840;SDS011;3458;53.678;14.080;2023-07-22T02:08:44;6.23;;;2.80;;
6840;SDS011;3458;53.678;14.080;2023-07-22T02:11:10;5.70;;;3.53;;
6840;SDS011;3458;53.678;14.080;2023-07-22T02:13:36;5.57;;;3.97;;
6840;SDS011;3458;53.678;14.080;2023-07-22T02:16:02;4.40;;;3.00;;
6840;SDS011;3458;53.678;14.080;2023-07-22T02:18:28;6.43;;;3.20;;
6840;SDS011;3458;53.678;14.080;2023-07-22T02:20:54;3.27;;;2.97;;
6840;SDS011;3458;53.678;14.080;2023-07-22T02:23:20;3.63;;;3.30;;
6840;SDS011;3458;53.678;14.080;2023-07-22T02:25:49;3.97;;;3.20;;
6840;SDS011;3458;53.678;14.080;2023-07-22T02:28:15;3.40;;;3.10;;
6840;SDS011;3458;53.678;14.080;2023-07-22T02:30:45;4.87;;;3.87;;
6840;SDS011;3458;53.678;14.080;2023-07-22T02:33:11;4.13;;;3.73;;
6840;SDS011;3458;53.678;14.080;2023-07-22T02:35:36;5.17;;;3.77;;
6840;SDS011;3458;53.678;14.080;2023-07-22T02:38:02;3.73;;;3.40;;
6840;SDS011;3458;53.678;14.080;2023-07-22T02:40:27;4.13;;;3.60;;
6840;SDS011;3458;53.678;14.080;2023-07-22T02:42:53;4.27;;;3.90;;
6840;SDS011;3458;53.678;14.080;2023-07-22T02:45:18;5.93;;;3.97;;
6840;SDS011;3458;53.678;14.080;2023-07-22T02:47:44;9.43;;;3.63;;
6840;SDS011;3458;53.678;14.080;2023-07-22T02:50:09;4.23;;;3.70;;
6840;SDS011;3458;53.678;14.080;2023-07-22T02:52:35;4.70;;;3.37;;
6840;SDS011;3458;53.678;14.080;2023-07-22T02:55:05;8.50;;;3.93;;
6840;SDS011;3458;53.678;14.080;2023-07-22T02:57:31;6.10;;;4.27;;
6840;SDS011;3458;53.678;14.080;2023-07-22T02:59:56;6.23;;;4.03;;
6840;SDS011;3458;53.678;14.080;2023-07-22T03:02:22;4.70;;;3.57;;
6840;SDS011;3458;53.678;14.080;2023-07-22T03:04:47;8.60;;;4.33;;
6840;SDS011;3458;53.678;14.080;2023-07-22T03:07:13;6.17;;;3.50;;
6840;SDS011;3458;53.678;14.080;2023-07-22T03:09:38;4.07;;;3.50;;
6840;SDS011;3458;53.678;14.080;2023-07-22T03:12:04;4.57;;;3.30;;
6840;SDS011;3458;53.678;14.080;2023-07-22T03:14:29;3.80;;;3.03;;
6840;SDS011;3458;53.678;14.080;2023-07-22T03:17:01;9.77;;;4.40;;
6840;SDS011;3458;53.678;14.080;2023-07-22T03:19:27;8.60;;;4.50;;
6840;SDS011;3458;53.678;14.080;2023-07-22T03:21:52;5.87;;;3.73;;
6840;SDS011;3458;53.678;14.080;2023-07-22T03:24:18;5.87;;;3.47;;
6840;SDS011;3458;53.678;14.080;2023-07-22T03:26:43;3.83;;;3.50;;
6840;SDS011;3458;53.678;14.080;2023-07-22T03:29:09;3.93;;;3.53;;
6840;SDS011;3458;53.678;14.080;2023-07-22T03:31:34;4.50;;;3.90;;
6840;SDS011;3458;53.678;14.080;2023-07-22T03:34:00;8.33;;;4.00;;
6840;SDS011;3458;53.678;14.080;2023-07-22T03:36:25;4.33;;;3.60;;
6840;SDS011;3458;53.678;14.080;2023-07-22T03:38:51;6.00;;;3.70;;
6840;SDS011;3458;53.678;14.080;2023-07-22T03:41:17;3.83;;;3.43;;
6840;SDS011;3458;53.678;14.080;2023-07-22T03:43:43;3.80;;;3.50;;
6840;SDS011;3458;53.678;14.080;2023-07-22T03:46:08;3.67;;;3.33;;
6840;SDS011;3458;53.678;14.080;2023-07-22T03:48:34;4.70;;;4.23;;
6840;SDS011;3458;53.678;14.080;2023-07-22T03:50:59;10.90;;;4.40;;
6840;SDS011;3458;53.678;14.080;2023-07-22T03:53:25;5.87;;;4.50;;
6840;SDS011;3458;53.678;14.080;2023-07-22T03:55:50;5.57;;;3.97;;
6840;SDS011;3458;53.678;14.080;2023-07-22T03:58:16;4.50;;;4.10;;
6840;SDS011;3458;53.678;14.080;2023-07-22T04:00:41;7.50;;;4.10;;
6840;SDS011;3458;53.678;14.080;2023-07-22T04:03:07;4.67;;;3.67;;
6840;SDS011;3458;53.678;14.080;2023-07-22T04:05:32;7.00;;;4.33;;
6840;SDS011;3458;53.678;14.080;2023-07-22T04:07:58;4.20;;;3.77;;
6840;SDS011;3458;53.678;14.080;2023-07-22T04:10:23;7.37;;;3.93;;
6840;SDS011;3458;53.678;14.080;2023-07-22T04:12:49;4.73;;;3.80;;
6840;SDS011;3458;53.678;14.080;2023-07-22T04:15:14;7.30;;;4.30;;
6840;SDS011;3458;53.678;14.080;2023-07-22T04:17:42;6.50;;;4.47;;
6840;SDS011;3458;53.678;14.080;2023-07-22T04:20:07;3.90;;;3.50;;
6840;SDS011;3458;53.678;14.080;2023-07-22T04:22:33;7.43;;;4.20;;
6840;SDS011;3458;53.678;14.080;2023-07-22T04:24:59;4.90;;;3.73;;
6840;SDS011;3458;53.678;14.080;2023-07-22T04:27:26;3.70;;;3.40;;
6840;SDS011;3458;53.678;14.080;2023-07-22T04:29:51;6.37;;;4.40;;
6840;SDS011;3458;53.678;14.080;2023-07-22T04:32:17;5.20;;;4.30;;
6840;SDS011;3458;53.678;14.080;2023-07-22T04:34:43;4.10;;;3.43;;
6840;SDS011;3458;53.678;14.080;2023-07-22T04:37:08;3.90;;;3.50;;
6840;SDS011;3458;53.678;14.080;2023-07-22T04:39:34;4.43;;;4.03;;
6840;SDS011;3458;53.678;14.080;2023-07-22T04:41:59;4.23;;;3.70;;
6840;SDS011;3458;53.678;14.080;2023-07-22T04:44:25;4.10;;;3.70;;
6840;SDS011;3458;53.678;14.080;2023-07-22T04:46:51;5.60;;;3.53;;
6840;SDS011;3458;53.678;14.080;2023-07-22T04:49:17;7.57;;;4.00;;
6840;SDS011;3458;53.678;14.080;2023-07-22T04:51:44;8.23;;;3.63;;
6840;SDS011;3458;53.678;14.080;2023-07-22T04:54:11;4.27;;;3.87;;
6840;SDS011;3458;53.678;14.080;2023-07-22T04:56:36;4.40;;;3.50;;
6840;SDS011;3458;53.678;14.080;2023-07-22T04:59:03;3.27;;;2.97;;
6840;SDS011;3458;53.678;14.080;2023-07-22T05:01:28;4.40;;;3.60;;
6840;SDS011;3458;53.678;14.080;2023-07-22T05:03:54;4.93;;;3.57;;
6840;SDS011;3458;53.678;14.080;2023-07-22T05:06:20;3.40;;;3.10;;
6840;SDS011;3458;53.678;14.080;2023-07-22T05:08:46;4.47;;;3.63;;
6840;SDS011;3458;53.678;14.080;2023-07-22T05:11:11;4.07;;;3.67;;
6840;SDS011;3458;53.678;14.080;2023-07-22T05:13:37;4.27;;;3.87;;
6840;SDS011;3458;53.678;14.080;2023-07-22T05:16:02;7.53;;;3.50;;
6840;SDS011;3458;53.678;14.080;2023-07-22T05:18:28;11.70;;;3.70;;
6840;SDS011;3458;53.678;14.080;2023-07-22T05:20:53;7.50;;;3.70;;
6840;SDS011;3458;53.678;14.080;2023-07-22T05:23:19;6.30;;;4.07;;
6840;SDS011;3458;53.678;14.080;2023-07-22T05:25:50;6.70;;;5.50;;
6840;SDS011;3458;53.678;14.080;2023-07-22T05:28:17;7.20;;;5.07;;
6840;SDS011;3458;53.678;14.080;2023-07-22T05:30:42;5.57;;;4.23;;
6840;SDS011;3458;53.678;14.080;2023-07-22T05:33:08;9.53;;;4.07;;
6840;SDS011;3458;53.678;14.080;2023-07-22T05:35:33;5.00;;;3.70;;
6840;SDS011;3458;53.678;14.080;2023-07-22T05:37:59;5.40;;;4.50;;
6840;SDS011;3458;53.678;14.080;2023-07-22T05:40:25;6.30;;;3.93;;
6840;SDS011;3458;53.678;14.080;2023-07-22T05:42:51;6.70;;;4.30;;
6840;SDS011;3458;53.678;14.080;2023-07-22T05:45:16;4.40;;;4.00;;
6840;SDS011;3458;53.678;14.080;2023-07-22T05:47:42;5.70;;;4.63;;
6840;SDS011;3458;53.678;14.080;2023-07-22T05:50:07;6.90;;;4.70;;
6840;SDS011;3458;53.678;14.080;2023-07-22T05:52:33;7.13;;;4.67;;
6840;SDS011;3458;53.678;14.080;2023-07-22T05:54:59;7.03;;;5.40;;
6840;SDS011;3458;53.678;14.080;2023-07-22T05:57:24;8.57;;;4.93;;
6840;SDS011;3458;53.678;14.080;2023-07-22T05:59:49;10.00;;;5.07;;
6840;SDS011;3458;53.678;14.080;2023-07-22T06:02:16;7.23;;;4.97;;
6840;SDS011;3458;53.678;14.080;2023-07-22T06:04:43;10.37;;;5.50;;
6840;SDS011;3458;53.678;14.080;2023-07-22T06:07:09;7.07;;;5.30;;
6840;SDS011;3458;53.678;14.080;2023-07-22T06:09:34;7.57;;;5.00;;
6840;SDS011;3458;53.678;14.080;2023-07-22T06:12:00;11.17;;;4.77;;
6840;SDS011;3458;53.678;14.080;2023-07-22T06:14:26;8.73;;;5.40;;
6840;SDS011;3458;53.678;14.080;2023-07-22T06:16:52;10.13;;;4.90;;
6840;SDS011;3458;53.678;14.080;2023-07-22T06:19:18;9.57;;;5.20;;
6840;SDS011;3458;53.678;14.080;2023-07-22T06:21:43;8.53;;;5.03;;
6840;SDS011;3458;53.678;14.080;2023-07-22T06:24:09;7.57;;;4.90;;
6840;SDS011;3458;53.678;14.080;2023-07-22T06:26:35;6.80;;;5.53;;
6840;SDS011;3458;53.678;14.080;2023-07-22T06:29:00;7.80;;;5.50;;
6840;SDS011;3458;53.678;14.080;2023-07-22T06:31:26;7.10;;;5.10;;
6840;SDS011;3458;53.678;14.080;2023-07-22T06:33:56;7.80;;;5.57;;
6840;SDS011;3458;53.678;14.080;2023-07-22T06:36:22;7.20;;;5.20;;
6840;SDS011;3458;53.678;14.080;2023-07-22T06:38:48;8.10;;;5.20;;
6840;SDS011;3458;53.678;14.080;2023-07-22T06:41:14;9.10;;;5.10;;
6840;SDS011;3458;53.678;14.080;2023-07-22T06:43:39;5.60;;;3.97;;
6840;SDS011;3458;53.678;14.080;2023-07-22T06:46:05;3.60;;;3.27;;
6840;SDS011;3458;53.678;14.080;2023-07-22T06:48:30;5.07;;;3.50;;
6840;SDS011;3458;53.678;14.080;2023-07-22T06:50:56;6.20;;;3.80;;
6840;SDS011;3458;53.678;14.080;2023-07-22T06:53:21;7.53;;;3.80;;
6840;SDS011;3458;53.678;14.080;2023-07-22T06:55:50;6.60;;;3.83;;
6840;SDS011;3458;53.678;14.080;2023-07-22T06:58:16;5.73;;;3.40;;
6840;SDS011;3458;53.678;14.080;2023-07-22T07:00:42;7.90;;;3.30;;
6840;SDS011;3458;53.678;14.080;2023-07-22T07:03:07;6.37;;;3.87;;
6840;SDS011;3458;53.678;14.080;2023-07-22T07:05:33;4.77;;;3.30;;
6840;SDS011;3458;53.678;14.080;2023-07-22T07:07:59;9.60;;;3.00;;
6840;SDS011;3458;53.678;14.080;2023-07-22T07:10:25;4.67;;;3.30;;
6840;SDS011;3458;53.678;14.080;2023-07-22T07:12:51;7.80;;;3.70;;
6840;SDS011;3458;53.678;14.080;2023-07-22T07:15:16;3.67;;;2.60;;
6840;SDS011;3458;53.678;14.080;2023-07-22T07:17:42;7.47;;;4.57;;
6840;SDS011;3458;53.678;14.080;2023-07-22T07:20:07;12.97;;;3.77;;
6840;SDS011;3458;53.678;14.080;2023-07-22T07:22:34;4.13;;;2.70;;
6840;SDS011;3458;53.678;14.080;2023-07-22T07:24:59;6.60;;;3.03;;
6840;SDS011;3458;53.678;14.080;2023-07-22T07:27:25;6.07;;;3.00;;
6840;SDS011;3458;53.678;14.080;2023-07-22T07:29:50;4.90;;;3.33;;
6840;SDS011;3458;53.678;14.080;2023-07-22T07:32:16;7.60;;;3.00;;
6840;SDS011;3458;53.678;14.080;2023-07-22T07:34:41;5.57;;;2.93;;
6840;SDS011;3458;53.678;14.080;2023-07-22T07:37:06;8.87;;;4.43;;
6840;SDS011;3458;53.678;14.080;2023-07-22T07:39:32;5.50;;;3.23;;
6840;SDS011;3458;53.678;14.080;2023-07-22T07:41:57;5.87;;;3.07;;
6840;SDS011;3458;53.678;14.080;2023-07-22T07:44:23;5.63;;;3.10;;
6840;SDS011;3458;53.678;14.080;2023-07-22T07:46:48;7.73;;;3.20;;
6840;SDS011;3458;53.678;14.080;2023-07-22T07:49:14;8.60;;;3.47;;
6840;SDS011;3458;53.678;14.080;2023-07-22T07:51:40;7.80;;;3.40;;
6840;SDS011;3458;53.678;14.080;2023-07-22T07:54:07;7.17;;;2.80;;
6840;SDS011;3458;53.678;14.080;2023-07-22T07:56:33;8.00;;;3.23;;
6840;SDS011;3458;53.678;14.080;2023-07-22T07:58:58;10.73;;;3.87;;
6840;SDS011;3458;53.678;14.080;2023-07-22T08:01:24;5.60;;;3.30;;
6840;SDS011;3458;53.678;14.080;2023-07-22T08:03:49;10.97;;;4.03;;
6840;SDS011;3458;53.678;14.080;2023-07-22T08:06:15;4.40;;;3.30;;
6840;SDS011;3458;53.678;14.080;2023-07-22T08:08:40;4.50;;;3.27;;
6840;SDS011;3458;53.678;14.080;2023-07-22T08:11:07;4.73;;;2.67;;
6840;SDS011;3458;53.678;14.080;2023-07-22T08:13:34;5.67;;;4.10;;
6840;SDS011;3458;53.678;14.080;2023-07-22T08:16:01;8.37;;;3.53;;
6840;SDS011;3458;53.678;14.080;2023-07-22T08:18:28;9.90;;;3.27;;
6840;SDS011;3458;53.678;14.080;2023-07-22T08:20:54;5.23;;;3.70;;
6840;SDS011;3458;53.678;14.080;2023-07-22T08:23:20;7.63;;;3.80;;
6840;SDS011;3458;53.678;14.080;2023-07-22T08:25:46;5.20;;;3.50;;
6840;SDS011;3458;53.678;14.080;2023-07-22T08:28:12;9.03;;;4.37;;
6840;SDS011;3458;53.678;14.080;2023-07-22T08:30:37;8.60;;;4.97;;
6840;SDS011;3458;53.678;14.080;2023-07-22T08:33:05;13.60;;;4.33;;
6840;SDS011;3458;53.678;14.080;2023-07-22T08:35:32;7.03;;;4.10;;
6840;SDS011;3458;53.678;14.080;2023-07-22T08:37:59;17.97;;;6.43;;
6840;SDS011;3458;53.678;14.080;2023-07-22T08:40:25;9.43;;;6.83;;
6840;SDS011;3458;53.678;14.080;2023-07-22T08:42:50;4.47;;;3.63;;
6840;SDS011;3458;53.678;14.080;2023-07-22T08:45:17;8.23;;;3.97;;
6840;SDS011;3458;53.678;14.080;2023-07-22T08:47:47;8.27;;;4.50;;
6840;SDS011;3458;53.678;14.080;2023-07-22T08:50:16;10.47;;;3.77;;
6840;SDS011;3458;53.678;14.080;2023-07-22T08:52:45;8.33;;;3.60;;
6840;SDS011;3458;53.678;14.080;2023-07-22T08:55:12;4.77;;;3.07;;
6840;SDS011;3458;53.678;14.080;2023-07-22T08:57:38;4.80;;;3.20;;
6840;SDS011;3458;53.678;14.080;2023-07-22T09:00:04;3.90;;;3.50;;
6840;SDS011;3458;53.678;14.080;2023-07-22T09:02:32;4.77;;;2.87;;
6840;SDS011;3458;53.678;14.080;2023-07-22T09:04:58;9.73;;;3.40;;
6840;SDS011;3458;53.678;14.080;2023-07-22T09:07:24;3.33;;;2.93;;
6840;SDS011;3458;53.678;14.080;2023-07-22T09:09:50;4.50;;;2.70;;
6840;SDS011;3458;53.678;14.080;2023-07-22T09:12:17;6.60;;;3.00;;
6840;SDS011;3458;53.678;14.080;2023-07-22T09:14:43;4.60;;;3.50;;
6840;SDS011;3458;53.678;14.080;2023-07-22T09:17:10;4.03;;;3.00;;
6840;SDS011;3458;53.678;14.080;2023-07-22T09:19:35;6.60;;;3.37;;
6840;SDS011;3458;53.678;14.080;2023-07-22T09:22:01;7.37;;;3.10;;
6840;SDS011;3458;53.678;14.080;2023-07-22T09:24:27;5.67;;;2.90;;
6840;SDS011;3458;53.678;14.080;2023-07-22T09:26:53;3.67;;;2.73;;
6840;SDS011;3458;53.678;14.080;2023-07-22T09:29:18;7.20;;;2.70;;
6840;SDS011;3458;53.678;14.080;2023-07-22T09:32:01;4.70;;;2.80;;
6840;SDS011;3458;53.678;14.080;2023-07-22T09:34:28;4.17;;;2.10;;
6840;SDS011;3458;53.678;14.080;2023-07-22T09:36:57;3.53;;;2.47;;
6840;SDS011;3458;53.678;14.080;2023-07-22T09:39:28;5.30;;;2.30;;
6840;SDS011;3458;53.678;14.080;2023-07-22T09:41:54;3.53;;;2.43;;
6840;SDS011;3458;53.678;14.080;2023-07-22T09:44:20;2.83;;;2.40;;
6840;SDS011;3458;53.678;14.080;2023-07-22T09:46:47;3.30;;;2.00;;
6840;SDS011;3458;53.678;14.080;2023-07-22T09:49:14;2.20;;;2.10;;
6840;SDS011;3458;53.678;14.080;2023-07-22T09:51:42;3.80;;;2.27;;
6840;SDS011;3458;53.678;14.080;2023-07-22T09:54:07;4.60;;;2.30;;
6840;SDS011;3458;53.678;14.080;2023-07-22T09:56:42;2.30;;;2.03;;
6840;SDS011;3458;53.678;14.080;2023-07-22T09:59:12;3.20;;;2.90;;
6840;SDS011;3458;53.678;14.080;2023-07-22T10:01:38;6.27;;;2.70;;
6840;SDS011;3458;53.678;14.080;2023-07-22T10:04:05;5.67;;;1.80;;
6840;SDS011;3458;53.678;14.080;2023-07-22T10:06:32;4.10;;;2.10;;
6840;SDS011;3458;53.678;14.080;2023-07-22T10:09:00;4.50;;;3.00;;
6840;SDS011;3458;53.678;14.080;2023-07-22T10:11:29;2.77;;;2.50;;
6840;SDS011;3458;53.678;14.080;2023-07-22T10:13:57;2.63;;;2.33;;
6840;SDS011;3458;53.678;14.080;2023-07-22T10:16:23;3.10;;;2.17;;
6840;SDS011;3458;53.678;14.080;2023-07-22T10:18:49;2.40;;;2.13;;
6840;SDS011;3458;53.678;14.080;2023-07-22T10:21:18;2.13;;;1.90;;
6840;SDS011;3458;53.678;14.080;2023-07-22T10:23:44;2.80;;;2.03;;
6840;SDS011;3458;53.678;14.080;2023-07-22T10:26:13;3.30;;;2.60;;
6840;SDS011;3458;53.678;14.080;2023-07-22T10:28:47;5.43;;;2.90;;
6840;SDS011;3458;53.678;14.080;2023-07-22T10:31:13;4.53;;;2.07;;
6840;SDS011;3458;53.678;14.080;2023-07-22T10:33:43;4.60;;;2.30;;
6840;SDS011;3458;53.678;14.080;2023-07-22T10:36:16;2.50;;;2.23;;
6840;SDS011;3458;53.678;14.080;2023-07-22T10:38:42;2.30;;;2.10;;
6840;SDS011;3458;53.678;14.080;2023-07-22T10:41:15;2.50;;;2.00;;
6840;SDS011;3458;53.678;14.080;2023-07-22T10:43:56;4.43;;;2.30;;
6840;SDS011;3458;53.678;14.080;2023-07-22T10:46:33;3.70;;;2.20;;
6840;SDS011;3458;53.678;14.080;2023-07-22T10:49:11;4.10;;;1.93;;
6840;SDS011;3458;53.678;14.080;2023-07-22T10:51:38;2.70;;;2.20;;
6840;SDS011;3458;53.678;14.080;2023-07-22T10:54:09;3.97;;;2.23;;
6840;SDS011;3458;53.678;14.080;2023-07-22T10:56:36;7.23;;;2.40;;
6840;SDS011;3458;53.678;14.080;2023-07-22T10:59:02;2.57;;;2.00;;
6840;SDS011;3458;53.678;14.080;2023-07-22T11:04:10;3.30;;;1.87;;
6840;SDS011;3458;53.678;14.080;2023-07-22T11:14:27;1.83;;;1.57;;
6840;SDS011;3458;53.678;14.080;2023-07-22T11:16:56;2.13;;;2.03;;
6840;SDS011;3458;53.678;14.080;2023-07-22T11:19:23;3.07;;;1.63;;
6840;SDS011;3458;53.678;14.080;2023-07-22T11:21:50;2.60;;;1.73;;
6840;SDS011;3458;53.678;14.080;2023-07-22T11:24:16;1.87;;;1.57;;
6840;SDS011;3458;53.678;14.080;2023-07-22T11:26:44;2.33;;;2.13;;
6840;SDS011;3458;53.678;14.080;2023-07-22T11:29:11;1.70;;;1.60;;
6840;SDS011;3458;53.678;14.080;2023-07-22T11:31:38;8.80;;;2.10;;
6840;SDS011;3458;53.678;14.080;2023-07-22T11:34:11;2.97;;;1.80;;
6840;SDS011;3458;53.678;14.080;2023-07-22T11:36:38;2.80;;;2.20;;
6840;SDS011;3458;53.678;14.080;2023-07-22T11:39:04;3.97;;;1.80;;
6840;SDS011;3458;53.678;14.080;2023-07-22T11:41:35;1.87;;;1.77;;
6840;SDS011;3458;53.678;14.080;2023-07-22T11:44:01;1.87;;;1.60;;
6840;SDS011;3458;53.678;14.080;2023-07-22T11:46:34;1.77;;;1.57;;
6840;SDS011;3458;53.678;14.080;2023-07-22T11:49:00;1.83;;;1.73;;
6840;SDS011;3458;53.678;14.080;2023-07-22T11:51:26;9.17;;;1.80;;
6840;SDS011;3458;53.678;14.080;2023-07-22T11:53:52;1.90;;;1.70;;
6840;SDS011;3458;53.678;14.080;2023-07-22T11:56:20;2.87;;;2.20;;
6840;SDS011;3458;53.678;14.080;2023-07-22T11:58:56;1.70;;;1.60;;
6840;SDS011;3458;53.678;14.080;2023-07-22T12:01:22;3.60;;;1.87;;
6840;SDS011;3458;53.678;14.080;2023-07-22T12:03:49;3.13;;;1.80;;
6840;SDS011;3458;53.678;14.080;2023-07-22T12:06:20;1.80;;;1.60;;
6840;SDS011;3458;53.678;14.080;2023-07-22T12:08:49;1.67;;;1.57;;
6840;SDS011;3458;53.678;14.080;2023-07-22T12:11:22;1.40;;;1.30;;
6840;SDS011;3458;53.678;14.080;2023-07-22T12:13:49;1.67;;;1.40;;
6840;SDS011;3458;53.678;14.080;2023-07-22T12:16:36;7.00;;;1.97;;
6840;SDS011;3458;53.678;14.080;2023-07-22T12:19:03;1.70;;;1.60;;
6840;SDS011;3458;53.678;14.080;2023-07-22T12:21:29;2.40;;;1.70;;
6840;SDS011;3458;53.678;14.080;2023-07-22T12:23:55;2.77;;;1.37;;
6840;SDS011;3458;53.678;14.080;2023-07-22T12:26:21;1.50;;;1.40;;
6840;SDS011;3458;53.678;14.080;2023-07-22T12:28:47;2.70;;;1.73;;
6840;SDS011;3458;53.678;14.080;2023-07-22T12:31:12;1.47;;;1.37;;
6840;SDS011;3458;53.678;14.080;2023-07-22T12:33:38;2.33;;;1.83;;
6840;SDS011;3458;53.678;14.080;2023-07-22T12:36:03;2.57;;;1.70;;
6840;SDS011;3458;53.678;14.080;2023-07-22T12:38:30;3.63;;;1.73;;
6840;SDS011;3458;53.678;14.080;2023-07-22T12:40:55;1.57;;;1.47;;
6840;SDS011;3458;53.678;14.080;2023-07-22T12:43:21;1.60;;;1.50;;
6840;SDS011;3458;53.678;14.080;2023-07-22T12:45:46;4.17;;;2.10;;
6840;SDS011;3458;53.678;14.080;2023-07-22T12:48:12;1.53;;;1.43;;
6840;SDS011;3458;53.678;14.080;2023-07-22T12:50:38;1.70;;;1.60;;
6840;SDS011;3458;53.678;14.080;2023-07-22T12:53:03;2.87;;;1.80;;
6840;SDS011;3458;53.678;14.080;2023-07-22T12:55:28;1.70;;;1.60;;
6840;SDS011;3458;53.678;14.080;2023-07-22T12:57:54;1.97;;;1.47;;
6840;SDS011;3458;53.678;14.080;2023-07-22T13:00:20;1.60;;;1.50;;
6840;SDS011;3458;53.678;14.080;2023-07-22T13:02:46;2.00;;;1.47;;
6840;SDS011;3458;53.678;14.080;2023-07-22T13:05:11;1.60;;;1.50;;
6840;SDS011;3458;53.678;14.080;2023-07-22T13:07:37;1.50;;;1.40;;
6840;SDS011;3458;53.678;14.080;2023-07-22T13:10:02;2.33;;;1.50;;
6840;SDS011;3458;53.678;14.080;2023-07-22T13:12:31;1.57;;;1.20;;
6840;SDS011;3458;53.678;14.080;2023-07-22T13:14:57;1.87;;;1.30;;
6840;SDS011;3458;53.678;14.080;2023-07-22T13:17:22;6.93;;;1.60;;
6840;SDS011;3458;53.678;14.080;2023-07-22T13:19:48;3.17;;;1.23;;
6840;SDS011;3458;53.678;14.080;2023-07-22T13:22:13;1.40;;;1.30;;
6840;SDS011;3458;53.678;14.080;2023-07-22T13:24:39;1.53;;;1.43;;
6840;SDS011;3458;53.678;14.080;2023-07-22T13:27:04;2.77;;;1.47;;
6840;SDS011;3458;53.678;14.080;2023-07-22T13:29:30;2.17;;;1.30;;
6840;SDS011;3458;53.678;14.080;2023-07-22T13:31:56;1.20;;;1.10;;
6840;SDS011;3458;53.678;14.080;2023-07-22T13:34:22;2.83;;;1.73;;
6840;SDS011;3458;53.678;14.080;2023-07-22T13:36:47;1.63;;;1.53;;
6840;SDS011;3458;53.678;14.080;2023-07-22T13:39:13;2.10;;;1.23;;
6840;SDS011;3458;53.678;14.080;2023-07-22T13:41:38;1.83;;;1.70;;
6840;SDS011;3458;53.678;14.080;2023-07-22T13:44:04;1.50;;;1.40;;
6840;SDS011;3458;53.678;14.080;2023-07-22T13:46:30;2.07;;;1.60;;
6840;SDS011;3458;53.678;14.080;2023-07-22T13:48:55;1.50;;;1.40;;
6840;SDS011;3458;53.678;14.080;2023-07-22T13:51:21;4.00;;;1.50;;
6840;SDS011;3458;53.678;14.080;2023-07-22T13:53:46;1.67;;;1.50;;
6840;SDS011;3458;53.678;14.080;2023-07-22T13:56:12;3.33;;;1.33;;
6840;SDS011;3458;53.678;14.080;2023-07-22T13:58:37;6.27;;;1.40;;
6840;SDS011;3458;53.678;14.080;2023-07-22T14:01:03;1.43;;;1.33;;
6840;SDS011;3458;53.678;14.080;2023-07-22T14:03:28;1.73;;;1.33;;
6840;SDS011;3458;53.678;14.080;2023-07-22T14:05:54;1.87;;;1.33;;
6840;SDS011;3458;53.678;14.080;2023-07-22T14:08:20;1.70;;;1.40;;
6840;SDS011;3458;53.678;14.080;2023-07-22T14:10:45;2.50;;;1.60;;
6840;SDS011;3458;53.678;14.080;2023-07-22T14:13:11;1.63;;;1.40;;
6840;SDS011;3458;53.678;14.080;2023-07-22T14:15:36;1.70;;;1.60;;
6840;SDS011;3458;53.678;14.080;2023-07-22T14:18:02;1.87;;;1.73;;
6840;SDS011;3458;53.678;14.080;2023-07-22T14:20:28;1.93;;;1.40;;
6840;SDS011;3458;53.678;14.080;2023-07-22T14:22:55;1.57;;;1.43;;
6840;SDS011;3458;53.678;14.080;2023-07-22T14:25:21;1.77;;;1.50;;
6840;SDS011;3458;53.678;14.080;2023-07-22T14:27:46;1.73;;;1.23;;
6840;SDS011;3458;53.678;14.080;2023-07-22T14:30:12;3.27;;;1.27;;
6840;SDS011;3458;53.678;14.080;2023-07-22T14:32:37;1.43;;;1.33;;
6840;SDS011;3458;53.678;14.080;2023-07-22T14:35:03;1.40;;;1.30;;
6840;SDS011;3458;53.678;14.080;2023-07-22T14:37:29;1.83;;;1.73;;
6840;SDS011;3458;53.678;14.080;2023-07-22T14:39:55;2.03;;;1.30;;
6840;SDS011;3458;53.678;14.080;2023-07-22T14:42:21;2.10;;;1.73;;
6840;SDS011;3458;53.678;14.080;2023-07-22T14:44:46;1.70;;;1.60;;
6840;SDS011;3458;53.678;14.080;2023-07-22T14:47:12;2.00;;;1.37;;
6840;SDS011;3458;53.678;14.080;2023-07-22T14:49:37;1.70;;;1.60;;
6840;SDS011;3458;53.678;14.080;2023-07-22T14:52:03;2.80;;;1.40;;
6840;SDS011;3458;53.678;14.080;2023-07-22T14:54:28;6.73;;;1.50;;
6840;SDS011;3458;53.678;14.080;2023-07-22T14:56:54;1.73;;;1.20;;
6840;SDS011;3458;53.678;14.080;2023-07-22T14:59:19;2.93;;;1.27;;
6840;SDS011;3458;53.678;14.080;2023-07-22T15:01:45;2.83;;;1.90;;
6840;SDS011;3458;53.678;14.080;2023-07-22T15:04:10;1.53;;;1.43;;
6840;SDS011;3458;53.678;14.080;2023-07-22T15:06:36;1.90;;;1.70;;